createdAt,value
2017-07-25T00:01:57.938Z,13.80
2017-07-25T00:04:26.075Z,13.80
2017-07-25T00:06:54.201Z,13.80
2017-07-25T00:09:22.368Z,13.80
2017-07-25T00:11:50.510Z,13.80
2017-07-25T00:14:18.681Z,13.80
2017-07-25T00:16:46.800Z,13.90
2017-07-25T00:19:14.944Z,13.90
2017-07-25T00:21:43.116Z,13.90
2017-07-25T00:24:11.256Z,13.80
2017-07-25T00:26:39.433Z,13.90
2017-07-25T00:29:07.566Z,13.90
2017-07-25T00:31:36.467Z,13.80
2017-07-25T00:34:05.390Z,13.80
2017-07-25T00:36:33.517Z,13.70
2017-07-25T00:39:02.453Z,13.70
2017-07-25T00:41:30.583Z,13.70
2017-07-25T00:43:59.469Z,13.60
2017-07-25T00:46:28.388Z,13.60
2017-07-25T00:48:56.513Z,13.60
2017-07-25T00:51:24.684Z,13.60
2017-07-25T00:53:52.848Z,13.50
2017-07-25T00:56:20.987Z,13.50
2017-07-25T00:58:49.151Z,13.50
2017-07-25T01:01:17.295Z,13.40
2017-07-25T01:03:45.453Z,13.40
2017-07-25T01:06:14.353Z,13.40
2017-07-25T01:08:43.290Z,13.30
2017-07-25T01:11:11.427Z,13.30
2017-07-25T01:13:39.555Z,13.30
2017-07-25T01:16:07.728Z,13.30
2017-07-25T01:18:35.852Z,13.30
2017-07-25T01:21:04.016Z,13.30
2017-07-25T01:23:32.142Z,13.30
2017-07-25T01:26:00.413Z,13.30
2017-07-25T01:28:28.549Z,13.30
2017-07-25T01:30:56.667Z,13.30
2017-07-25T01:33:24.826Z,13.40
2017-07-25T01:35:52.977Z,13.40
2017-07-25T01:38:21.161Z,13.40
2017-07-25T01:40:49.293Z,13.40
2017-07-25T01:43:17.566Z,13.40
2017-07-25T01:45:45.688Z,13.50
2017-07-25T01:48:13.811Z,13.50
2017-07-25T01:50:41.969Z,13.40
2017-07-25T01:53:10.089Z,13.40
2017-07-25T01:55:38.254Z,13.50
2017-07-25T01:58:06.388Z,13.50
2017-07-25T02:00:34.563Z,13.50
2017-07-25T02:03:02.723Z,13.50
2017-07-25T02:05:30.889Z,13.60
2017-07-25T02:07:59.779Z,13.60
2017-07-25T02:10:28.679Z,13.60
2017-07-25T02:12:56.840Z,13.50
2017-07-25T02:15:25.729Z,13.60
2017-07-25T02:17:54.665Z,13.60
2017-07-25T02:20:22.803Z,13.60
2017-07-25T02:22:50.921Z,13.60
2017-07-25T02:25:19.085Z,13.60
2017-07-25T02:27:47.284Z,13.60
2017-07-25T02:30:15.784Z,13.60
2017-07-25T02:32:43.910Z,13.60
2017-07-25T02:35:12.032Z,13.60
2017-07-25T02:37:40.190Z,13.60
2017-07-25T02:40:09.077Z,13.60
2017-07-25T02:42:38.031Z,13.60
2017-07-25T02:45:06.162Z,13.60
2017-07-25T02:47:34.727Z,13.60
2017-07-25T02:50:03.641Z,13.50
2017-07-25T02:52:31.763Z,13.50
2017-07-25T02:54:59.925Z,13.50
2017-07-25T02:57:28.056Z,13.50
2017-07-25T02:59:56.214Z,13.50
2017-07-25T03:02:24.358Z,13.50
2017-07-25T03:04:52.535Z,13.50
2017-07-25T03:07:21.417Z,13.50
2017-07-25T03:09:49.537Z,13.40
2017-07-25T03:12:17.684Z,13.40
2017-07-25T03:14:45.816Z,13.40
2017-07-25T03:17:13.983Z,13.40
2017-07-25T03:19:42.116Z,13.40
2017-07-25T03:22:10.292Z,13.40
2017-07-25T03:24:38.408Z,13.40
2017-07-25T03:27:06.528Z,13.40
2017-07-25T03:29:34.706Z,13.40
2017-07-25T03:32:02.846Z,13.40
2017-07-25T03:34:31.801Z,13.40
2017-07-25T03:36:59.939Z,13.40
2017-07-25T03:39:28.071Z,13.30
2017-07-25T03:41:56.993Z,13.40
2017-07-25T03:44:25.137Z,13.30
2017-07-25T03:46:54.075Z,13.30
2017-07-25T03:49:22.199Z,13.30
2017-07-25T03:51:51.134Z,13.40
2017-07-25T03:54:19.301Z,13.30
2017-07-25T03:56:47.436Z,13.40
2017-07-25T03:59:16.365Z,13.40
2017-07-25T04:01:44.489Z,13.40
2017-07-25T04:04:13.418Z,13.40
2017-07-25T04:06:41.567Z,13.40
2017-07-25T04:09:09.707Z,13.50
2017-07-25T04:11:37.869Z,13.50
2017-07-25T04:14:06.012Z,13.50
2017-07-25T04:16:34.191Z,13.50
2017-07-25T04:19:02.310Z,13.50
2017-07-25T04:21:31.255Z,13.50
2017-07-25T04:23:59.375Z,13.50
2017-07-25T04:26:28.296Z,13.50
2017-07-25T04:28:56.454Z,13.50
2017-07-25T04:31:24.596Z,13.60
2017-07-25T04:33:53.544Z,14.00
2017-07-25T04:36:21.685Z,14.00
2017-07-25T04:38:49.819Z,14.10
2017-07-25T04:41:17.979Z,14.30
2017-07-25T04:43:46.110Z,14.40
2017-07-25T04:46:14.275Z,14.50
2017-07-25T04:48:42.394Z,14.60
2017-07-25T04:51:10.566Z,14.60
2017-07-25T04:53:38.706Z,14.60
2017-07-25T04:56:06.828Z,14.60
2017-07-25T04:58:34.981Z,14.50
2017-07-25T05:01:03.114Z,14.50
2017-07-25T05:03:31.274Z,14.40
2017-07-25T05:05:59.404Z,14.20
2017-07-25T05:08:27.568Z,14.10
2017-07-25T05:10:55.695Z,14.00
2017-07-25T05:13:24.893Z,14.00
2017-07-25T05:15:53.014Z,13.90
2017-07-25T05:18:38.973Z,13.80
2017-07-25T05:21:07.093Z,13.80
2017-07-25T05:23:35.981Z,13.70
2017-07-25T05:26:04.918Z,13.70
2017-07-25T05:28:33.059Z,13.60
2017-07-25T05:31:01.205Z,13.60
2017-07-25T05:33:30.097Z,13.50
2017-07-25T05:35:59.044Z,13.50
2017-07-25T05:38:27.170Z,13.50
2017-07-25T05:40:55.295Z,13.50
2017-07-25T05:43:23.444Z,13.50
2017-07-25T05:45:51.573Z,13.50
2017-07-25T05:48:20.521Z,13.50
2017-07-25T05:50:48.636Z,13.50
2017-07-25T05:53:17.535Z,13.50
2017-07-25T05:55:45.699Z,13.50
2017-07-25T05:58:14.593Z,13.50
2017-07-25T06:00:42.783Z,13.50
2017-07-25T06:03:10.926Z,13.50
2017-07-25T06:05:39.830Z,13.50
2017-07-25T06:08:07.984Z,13.50
2017-07-25T06:10:36.874Z,13.50
2017-07-25T06:13:05.818Z,13.50
2017-07-25T06:15:33.936Z,13.50
2017-07-25T06:18:02.056Z,13.60
2017-07-25T06:20:30.205Z,13.60
2017-07-25T06:22:58.335Z,13.70
2017-07-25T06:25:26.523Z,13.70
2017-07-25T06:27:55.419Z,13.80
2017-07-25T06:30:24.301Z,13.80
2017-07-25T06:32:53.216Z,13.80
2017-07-25T06:35:21.346Z,13.80
2017-07-25T06:37:49.520Z,13.80
2017-07-25T06:40:17.654Z,13.90
2017-07-25T06:42:45.784Z,14.00
2017-07-25T06:45:13.950Z,14.00
2017-07-25T06:47:43.034Z,14.10
2017-07-25T06:50:11.978Z,14.10
2017-07-25T06:52:40.109Z,14.00
2017-07-25T06:55:09.001Z,14.10
2017-07-25T06:57:37.160Z,14.10
2017-07-25T07:00:06.054Z,14.20
2017-07-25T07:02:34.996Z,14.30
2017-07-25T07:05:03.135Z,14.30
2017-07-25T07:07:31.261Z,14.40
2017-07-25T07:09:59.426Z,14.50
2017-07-25T07:12:27.561Z,14.60
2017-07-25T07:14:55.734Z,14.80
2017-07-25T07:17:23.863Z,15.00
2017-07-25T07:19:52.763Z,15.20
2017-07-25T07:22:21.686Z,15.30
2017-07-25T07:24:49.808Z,15.30
2017-07-25T07:27:17.961Z,15.40
2017-07-25T07:29:46.082Z,15.40
2017-07-25T07:32:14.242Z,15.50
2017-07-25T07:34:42.375Z,15.50
2017-07-25T07:37:10.555Z,15.60
2017-07-25T07:39:38.686Z,15.60
2017-07-25T07:42:06.823Z,15.50
2017-07-25T07:44:35.750Z,15.40
2017-07-25T07:47:03.868Z,15.40
2017-07-25T07:49:32.805Z,15.30
2017-07-25T07:52:00.928Z,15.30
2017-07-25T07:54:29.869Z,15.20
2017-07-25T07:56:58.054Z,15.20
2017-07-25T07:59:26.218Z,15.20
2017-07-25T08:01:54.397Z,15.20
2017-07-25T08:04:22.524Z,15.20
2017-07-25T08:06:51.424Z,15.30
2017-07-25T08:09:19.590Z,15.30
2017-07-25T08:11:47.705Z,15.40
2017-07-25T08:14:15.867Z,15.50
2017-07-25T08:16:43.984Z,15.50
2017-07-25T08:19:12.901Z,15.50
2017-07-25T08:21:41.036Z,15.50
2017-07-25T08:24:09.195Z,15.60
2017-07-25T08:26:37.328Z,15.60
2017-07-25T08:29:05.504Z,15.80
2017-07-25T08:31:33.624Z,15.90
2017-07-25T08:34:01.741Z,16.10
2017-07-25T08:36:29.889Z,16.40
2017-07-25T08:38:58.023Z,16.50
2017-07-25T08:41:26.195Z,16.60
2017-07-25T08:43:54.324Z,16.60
2017-07-25T08:46:22.454Z,16.60
2017-07-25T08:48:51.378Z,16.40
2017-07-25T08:51:19.514Z,16.40
2017-07-25T08:53:48.452Z,16.30
2017-07-25T08:56:16.677Z,16.30
2017-07-25T08:58:45.563Z,16.40
2017-07-25T09:01:14.044Z,16.40
2017-07-25T09:03:42.942Z,16.50
2017-07-25T09:06:11.870Z,16.50
2017-07-25T09:08:40.002Z,16.50
2017-07-25T09:11:08.921Z,16.60
2017-07-25T09:13:37.055Z,16.60
2017-07-25T09:16:06.006Z,17.10
2017-07-25T09:18:34.124Z,17.10
2017-07-25T09:21:03.024Z,17.40
2017-07-25T09:23:31.177Z,17.40
2017-07-25T09:26:00.070Z,17.40
2017-07-25T09:28:29.003Z,17.20
2017-07-25T09:30:57.119Z,17.20
2017-07-25T09:33:25.250Z,16.90
2017-07-25T09:35:53.419Z,16.60
2017-07-25T09:38:21.537Z,16.50
2017-07-25T09:40:49.699Z,16.40
2017-07-25T09:43:17.833Z,16.70
2017-07-25T09:45:46.009Z,17.30
2017-07-25T09:48:14.149Z,17.70
2017-07-25T09:50:42.322Z,17.90
2017-07-25T09:53:10.468Z,17.80
2017-07-25T09:55:39.366Z,17.70
2017-07-25T09:58:08.300Z,18.00
2017-07-25T10:00:36.439Z,17.90
2017-07-25T10:03:04.617Z,18.40
2017-07-25T10:05:32.733Z,18.80
2017-07-25T10:08:00.870Z,19.00
2017-07-25T10:10:29.035Z,19.20
2017-07-25T10:12:57.155Z,19.50
2017-07-25T10:15:25.321Z,19.90
2017-07-25T10:17:53.454Z,20.20
2017-07-25T10:20:21.584Z,20.50
2017-07-25T10:22:49.746Z,20.60
2017-07-25T10:25:17.881Z,20.50
2017-07-25T10:27:46.065Z,20.20
2017-07-25T10:30:14.183Z,20.10
2017-07-25T10:32:43.103Z,19.40
2017-07-25T10:35:11.233Z,19.30
2017-07-25T10:37:39.403Z,19.00
2017-07-25T10:40:07.530Z,18.60
2017-07-25T10:42:35.701Z,18.30
2017-07-25T10:45:03.835Z,18.30
2017-07-25T10:47:32.738Z,18.50
2017-07-25T10:50:00.888Z,18.50
2017-07-25T10:52:29.789Z,18.60
2017-07-25T10:54:58.721Z,18.70
2017-07-25T10:57:26.875Z,18.70
2017-07-25T10:59:55.030Z,18.70
2017-07-25T11:02:23.150Z,18.60
2017-07-25T11:04:51.307Z,18.50
2017-07-25T11:07:19.438Z,18.30
2017-07-25T11:09:47.618Z,18.10
2017-07-25T11:12:15.737Z,18.00
2017-07-25T11:14:43.864Z,17.90
2017-07-25T11:17:12.024Z,17.80
2017-07-25T11:19:40.154Z,17.70
2017-07-25T11:22:08.330Z,17.60
2017-07-25T11:24:36.457Z,17.40
2017-07-25T11:27:04.579Z,17.30
2017-07-25T11:29:32.733Z,17.20
2017-07-25T11:32:00.866Z,17.10
2017-07-25T11:34:29.030Z,16.90
2017-07-25T11:36:57.155Z,16.80
2017-07-25T11:39:25.313Z,16.70
2017-07-25T11:41:53.437Z,16.70
2017-07-25T11:44:21.585Z,16.80
2017-07-25T11:46:49.744Z,16.80
2017-07-25T11:49:17.874Z,16.90
2017-07-25T11:51:46.068Z,17.00
2017-07-25T11:54:14.184Z,17.20
2017-07-25T11:56:43.069Z,17.40
2017-07-25T11:59:12.019Z,17.50
2017-07-25T12:01:40.137Z,17.40
2017-07-25T12:04:08.287Z,17.50
2017-07-25T12:06:36.414Z,17.30
2017-07-25T12:09:04.582Z,17.20
2017-07-25T12:11:32.790Z,17.10
2017-07-25T12:14:00.917Z,17.00
2017-07-25T12:16:29.065Z,17.00
2017-07-25T12:18:57.964Z,17.00
2017-07-25T12:21:39.787Z,17.00
2017-07-25T12:24:07.927Z,17.00
2017-07-25T12:26:36.052Z,17.00
2017-07-25T12:29:04.235Z,16.90
2017-07-25T12:31:32.379Z,16.80
2017-07-25T12:34:00.564Z,16.60
2017-07-25T12:36:28.702Z,16.30
2017-07-25T12:38:56.832Z,16.10
2017-07-25T12:41:25.768Z,15.80
2017-07-25T12:43:53.892Z,15.70
2017-07-25T12:46:22.046Z,15.70
2017-07-25T12:48:50.185Z,15.70
2017-07-25T12:51:18.350Z,15.70
2017-07-25T12:53:46.474Z,15.80
2017-07-25T12:56:14.646Z,15.90
2017-07-25T12:58:42.802Z,16.00
2017-07-25T13:01:37.397Z,16.20
2017-07-25T13:04:05.522Z,16.30
2017-07-25T13:06:33.657Z,16.40
2017-07-25T13:09:01.823Z,16.50
2017-07-25T13:11:29.945Z,16.50
2017-07-25T13:13:58.122Z,16.50
2017-07-25T13:16:26.240Z,16.40
2017-07-25T13:18:55.146Z,16.20
2017-07-25T13:21:23.302Z,16.20
2017-07-25T13:23:52.202Z,16.10
2017-07-25T13:26:20.389Z,16.00
2017-07-25T13:28:48.508Z,16.00
2017-07-25T13:31:16.649Z,15.90
2017-07-25T13:33:44.796Z,15.80
2017-07-25T13:36:12.931Z,15.70
2017-07-25T13:38:41.092Z,15.60
2017-07-25T13:41:09.222Z,15.50
2017-07-25T13:43:37.575Z,15.40
2017-07-25T13:46:06.469Z,15.30
2017-07-25T13:48:35.370Z,15.30
2017-07-25T13:51:03.520Z,15.30
2017-07-25T13:53:32.408Z,15.40
2017-07-25T13:56:01.350Z,15.60
2017-07-25T13:58:29.474Z,15.60
2017-07-25T14:00:58.369Z,16.00
2017-07-25T14:03:27.346Z,16.10
2017-07-25T14:05:56.241Z,16.10
2017-07-25T14:08:25.176Z,16.20
2017-07-25T14:10:53.315Z,16.20
2017-07-25T14:13:21.460Z,16.30
2017-07-25T14:15:49.608Z,16.30
2017-07-25T14:18:17.743Z,16.40
2017-07-25T14:20:45.906Z,16.40
2017-07-25T14:23:14.029Z,16.50
2017-07-25T14:25:42.210Z,16.40
2017-07-25T14:28:10.328Z,16.30
2017-07-25T14:30:38.460Z,16.10
2017-07-25T14:33:06.604Z,16.10
2017-07-25T14:35:34.733Z,16.00
2017-07-25T14:38:02.899Z,15.90
2017-07-25T14:40:31.022Z,15.80
2017-07-25T14:42:59.159Z,15.70
2017-07-25T14:45:27.394Z,15.60
2017-07-25T14:47:55.517Z,15.60
2017-07-25T14:50:23.677Z,15.60
2017-07-25T14:52:51.801Z,15.60
2017-07-25T14:55:19.977Z,15.60
2017-07-25T14:57:48.098Z,15.70
2017-07-25T15:00:16.243Z,15.80
2017-07-25T15:02:44.410Z,15.80
2017-07-25T15:05:13.308Z,15.90
2017-07-25T15:07:41.471Z,15.90
2017-07-25T15:10:10.375Z,15.90
2017-07-25T15:12:38.618Z,15.90
2017-07-25T15:15:07.517Z,15.80
2017-07-25T15:17:36.422Z,15.70
2017-07-25T15:20:04.588Z,15.70
2017-07-25T15:22:32.706Z,15.60
2017-07-25T15:25:00.873Z,15.50
2017-07-25T15:27:29.008Z,15.50
2017-07-25T15:29:57.140Z,15.40
2017-07-25T15:32:25.288Z,15.40
2017-07-25T15:34:53.439Z,15.40
2017-07-25T15:37:21.606Z,15.40
2017-07-25T15:39:49.736Z,15.50
2017-07-25T15:42:17.856Z,15.50
2017-07-25T15:44:46.022Z,15.50
2017-07-25T15:47:14.157Z,15.50
2017-07-25T15:49:43.089Z,15.40
2017-07-25T15:52:11.214Z,15.40
2017-07-25T15:54:39.387Z,15.40
2017-07-25T15:57:08.296Z,15.50
2017-07-25T15:59:36.453Z,15.50
2017-07-25T16:02:04.633Z,15.60
2017-07-25T16:04:33.539Z,15.70
2017-07-25T16:07:01.724Z,15.80
2017-07-25T16:09:29.854Z,15.80
2017-07-25T16:11:58.761Z,15.80
2017-07-25T16:14:26.939Z,15.80
2017-07-25T16:16:55.084Z,15.80
2017-07-25T16:19:23.355Z,15.70
2017-07-25T16:21:51.491Z,15.60
2017-07-25T16:24:19.635Z,15.60
2017-07-25T16:26:48.767Z,15.50
2017-07-25T16:29:16.898Z,15.50
2017-07-25T16:31:45.073Z,15.50
2017-07-25T16:34:13.208Z,15.40
2017-07-25T16:36:41.322Z,15.50
2017-07-25T16:39:09.496Z,15.50
2017-07-25T16:41:37.614Z,15.50
2017-07-25T16:44:05.769Z,15.40
2017-07-25T16:46:33.888Z,15.40
2017-07-25T16:49:02.058Z,15.40
2017-07-25T16:51:30.195Z,15.30
2017-07-25T16:53:58.332Z,15.30
2017-07-25T16:56:26.553Z,15.30
2017-07-25T16:58:55.455Z,15.20
2017-07-25T17:01:24.418Z,15.20
2017-07-25T17:03:52.545Z,15.20
2017-07-25T17:06:20.728Z,15.20
2017-07-25T17:08:48.859Z,15.10
2017-07-25T17:11:17.004Z,15.10
2017-07-25T17:13:45.184Z,15.10
2017-07-25T17:16:13.322Z,15.10
2017-07-25T17:18:41.534Z,15.10
2017-07-25T17:21:10.420Z,15.00
2017-07-25T17:23:38.590Z,15.00
2017-07-25T17:26:06.708Z,15.00
2017-07-25T17:28:34.828Z,15.00
2017-07-25T17:31:02.980Z,15.00
2017-07-25T17:33:31.101Z,14.90
2017-07-25T17:35:59.250Z,14.90
2017-07-25T17:38:28.149Z,14.90
2017-07-25T17:40:57.080Z,14.90
2017-07-25T17:43:25.236Z,14.90
2017-07-25T17:45:53.384Z,14.90
2017-07-25T17:48:22.364Z,14.80
2017-07-25T17:50:51.270Z,14.80
2017-07-25T17:53:19.406Z,14.80
2017-07-25T17:55:47.567Z,14.80
2017-07-25T17:58:15.703Z,14.80
2017-07-25T18:00:43.940Z,14.80
2017-07-25T18:03:12.855Z,14.80
2017-07-25T18:05:41.014Z,14.70
2017-07-25T18:08:09.178Z,14.70
2017-07-25T18:10:38.083Z,14.70
2017-07-25T18:13:06.239Z,14.70
2017-07-25T18:15:34.368Z,14.70
2017-07-25T18:18:02.537Z,14.60
2017-07-25T18:20:30.672Z,14.60
2017-07-25T18:22:58.923Z,14.60
2017-07-25T18:25:27.110Z,14.60
2017-07-25T18:27:55.352Z,14.60
2017-07-25T18:30:23.578Z,14.60
2017-07-25T18:32:51.733Z,14.50
2017-07-25T18:35:20.686Z,14.50
2017-07-25T18:37:49.998Z,14.40
2017-07-25T18:40:18.580Z,14.40
2017-07-25T18:42:47.061Z,14.40
2017-07-25T18:45:15.547Z,14.40
2017-07-25T18:47:44.222Z,14.40
2017-07-25T18:50:23.044Z,14.40
2017-07-25T18:52:52.310Z,14.40
2017-07-25T18:55:22.891Z,14.30
2017-07-25T18:57:52.984Z,14.30
2017-07-25T19:00:22.149Z,14.30
2017-07-25T19:02:51.231Z,14.30
2017-07-25T19:05:20.491Z,14.30
2017-07-25T19:07:50.329Z,14.30
2017-07-25T19:10:20.466Z,14.30
2017-07-25T19:12:49.961Z,14.30
2017-07-25T19:15:20.084Z,14.30
2017-07-25T19:17:49.775Z,14.30
2017-07-25T19:20:19.760Z,14.20
2017-07-25T19:22:49.231Z,14.20
2017-07-25T19:25:19.077Z,14.20
2017-07-25T19:27:48.976Z,14.20
2017-07-25T19:30:18.908Z,14.20
2017-07-25T19:32:48.708Z,14.20
2017-07-25T19:35:18.463Z,14.20
2017-07-25T19:37:48.552Z,14.20
2017-07-25T19:40:18.956Z,14.20
2017-07-25T19:42:48.882Z,14.20
2017-07-25T19:45:19.600Z,14.20
2017-07-25T19:47:49.253Z,14.20
2017-07-25T19:50:18.375Z,14.20
2017-07-25T19:52:47.615Z,14.10
2017-07-25T19:55:16.822Z,14.10
2017-07-25T19:57:47.670Z,14.10
2017-07-25T20:00:17.236Z,14.00
2017-07-25T20:02:46.713Z,14.00
2017-07-25T20:05:26.062Z,14.00
2017-07-25T20:07:54.978Z,14.00
2017-07-25T20:10:23.464Z,14.00
2017-07-25T20:12:52.009Z,14.00
2017-07-25T20:15:20.693Z,14.00
2017-07-25T20:17:48.845Z,14.00
2017-07-25T20:20:17.274Z,14.00
2017-07-25T20:22:45.482Z,14.00
2017-07-25T20:25:13.644Z,14.00
2017-07-25T20:27:41.829Z,13.90
2017-07-25T20:30:09.983Z,14.00
2017-07-25T20:32:38.166Z,14.00
2017-07-25T20:35:06.303Z,14.00
2017-07-25T20:37:34.451Z,14.00
2017-07-25T20:40:03.385Z,14.00
2017-07-25T20:42:31.519Z,14.00
2017-07-25T20:45:00.456Z,14.00
2017-07-25T20:47:28.609Z,14.00
2017-07-25T20:49:56.728Z,14.00
2017-07-25T20:52:24.892Z,14.00
2017-07-25T20:54:53.034Z,14.00
2017-07-25T20:57:21.180Z,14.00
2017-07-25T20:59:49.427Z,14.00
2017-07-25T21:02:18.374Z,14.00
2017-07-25T21:04:46.515Z,14.00
2017-07-25T21:07:14.628Z,14.00
2017-07-25T21:09:42.800Z,14.00
2017-07-25T21:12:10.933Z,14.00
2017-07-25T21:14:39.089Z,14.00
2017-07-25T21:17:07.973Z,14.00
2017-07-25T21:19:36.953Z,14.00
2017-07-25T21:22:05.068Z,14.00
2017-07-25T21:24:33.227Z,14.00
2017-07-25T21:27:01.346Z,14.00
2017-07-25T21:29:29.491Z,14.00
2017-07-25T21:31:57.663Z,14.00
2017-07-25T21:34:25.788Z,14.00
2017-07-25T21:36:54.719Z,14.00
2017-07-25T21:39:22.854Z,14.00
2017-07-25T21:41:52.038Z,14.00
2017-07-25T21:44:20.955Z,14.00
2017-07-25T21:46:49.098Z,14.00
2017-07-25T21:49:18.025Z,13.90
2017-07-25T21:51:46.160Z,13.90
2017-07-25T21:54:14.358Z,13.90
2017-07-25T21:56:42.493Z,13.90
2017-07-25T21:59:10.613Z,13.90
2017-07-25T22:02:08.401Z,13.90
2017-07-25T22:04:54.353Z,13.90
2017-07-25T22:07:22.476Z,13.80
2017-07-25T22:09:50.602Z,13.80
2017-07-25T22:12:18.749Z,13.80
2017-07-25T22:14:47.655Z,13.80
2017-07-25T22:17:15.831Z,13.80
2017-07-25T22:19:43.966Z,13.80
2017-07-25T22:22:12.922Z,13.80
2017-07-25T22:24:41.066Z,13.80
2017-07-25T22:27:09.185Z,13.80
2017-07-25T22:29:37.354Z,13.80
2017-07-25T22:32:05.473Z,13.80
2017-07-25T22:34:33.646Z,13.80
2017-07-25T22:37:01.779Z,13.80
2017-07-25T22:39:29.901Z,13.80
2017-07-25T22:41:58.061Z,13.80
2017-07-25T22:44:26.177Z,13.80
2017-07-25T22:46:54.341Z,13.80
2017-07-25T22:49:22.469Z,13.80
2017-07-25T22:51:50.605Z,13.80
2017-07-25T22:54:18.769Z,13.80
2017-07-25T22:56:46.892Z,13.80
2017-07-25T22:59:15.075Z,13.80
2017-07-25T23:01:43.198Z,13.80
2017-07-25T23:04:11.327Z,13.80
2017-07-25T23:06:39.484Z,13.80
2017-07-25T23:09:07.617Z,13.80
2017-07-25T23:11:35.988Z,13.80
2017-07-25T23:14:04.115Z,13.80
2017-07-25T23:16:32.238Z,13.80
2017-07-25T23:19:01.161Z,13.80
2017-07-25T23:21:29.329Z,13.80
2017-07-25T23:23:57.489Z,13.80
2017-07-25T23:26:25.622Z,13.80
2017-07-25T23:28:53.803Z,13.80
2017-07-25T23:31:21.934Z,13.80
2017-07-25T23:33:50.070Z,13.80
2017-07-25T23:36:18.992Z,13.80
2017-07-25T23:38:47.117Z,13.80
2017-07-25T23:41:16.058Z,13.80
2017-07-25T23:43:44.211Z,13.80
2017-07-25T23:46:12.337Z,13.80
2017-07-25T23:48:40.503Z,13.80
2017-07-25T23:51:08.682Z,13.80
2017-07-25T23:53:36.921Z,13.80
2017-07-25T23:56:05.089Z,13.70
2017-07-25T23:58:33.207Z,13.70
